Pride Of Burgundy — MQSQ9 — position and weather

sailwx.info

Track history (hours):
 
Tides and Currents Weather Stations Pressure Air Temp Water Temp Dewpoint Dewpoint Depression Visibility Wind Speed Wind Dir Waves Ship Positions

Pride Of Burgundy

Operator: P & O Ferries

Last reported at 2017-Feb-23 02:33 UTC. Time now 2017-Feb-23 02:33 UTC.
Position N 51°06' E 001°25'.

Length 180 m; draft 6.2 m.

Type: Passenger vessel. MMSI: 232001470.

Date/timePositionNaut miles runAvg speedWind from/ knotsBaromVisibWave heightAir tempDewpointWater temp
2017-Feb-23 02:33N 51°06' E 001°25'1414.1
2017-Feb-23 01:33N 50°58' E 001°44'5 5.0
2017-Feb-23 00:33N 50°58' E 001°52'9 8.7
2017-Feb-22 23:33N 50°59' E 001°38'1413.2
2017-Feb-22 22:30N 51°07' E 001°20'0 0.1
2017-Feb-22 21:33N 51°07' E 001°20'1212.1
2017-Feb-22 20:33N 51°03' E 001°38'9 9.5
2017-Feb-22 19:33N 50°58' E 001°51'4 4.4
2017-Feb-22 18:33N 50°58' E 001°44'1817.8
2017-Feb-22 17:33N 51°07' E 001°20'1 0.6
2017-Feb-22 16:33N 51°07' E 001°21'1817.9
2017-Feb-22 15:33N 50°58' E 001°46'3 3.5
2017-Feb-22 14:33N 50°58' E 001°51'1010.3
2017-Feb-22 13:33N 51°01' E 001°35'1111.5
2017-Feb-22 12:33N 51°07' E 001°20'6 5.9
2017-Feb-22 11:33N 51°05' E 001°29'1615.7
2017-Feb-22 10:33N 50°58' E 001°51'1 0.6
2017-Feb-22 09:33N 50°58' E 001°50'1817.7
2017-Feb-22 08:33N 51°04' E 001°24'4 3.7
2017-Feb-22 07:33N 51°07' E 001°20'1110.6
2017-Feb-22 06:34N 51°03' E 001°36'1111.0
2017-Feb-22 05:33N 50°58' E 001°51'2 2.2
2017-Feb-22 04:33N 50°58' E 001°48'1818.4
2017-Feb-22 03:33N 51°07' E 001°22'1 1.2
2017-Feb-22 02:33N 51°07' E 001°20'4 4.2
2017-Feb-22 01:33N 51°07' E 001°27'1616.4
2017-Feb-22 00:33N 50°58' E 001°49'2 1.7
2017-Feb-21 23:34N 50°58' E 001°51'1514.5
2017-Feb-21 22:33N 51°03' E 001°29'8 7.6
2017-Feb-21 21:34N 51°07' E 001°20'7 6.9
2017-Feb-21 20:34N 51°05' E 001°30'1414.5
2017-Feb-21 19:33N 50°58' E 001°51'0 0.2
2017-Feb-21 18:34N 50°58' E 001°50'1817.6
2017-Feb-21 17:34N 51°06' E 001°25'4 3.5
2017-Feb-21 16:33N 51°07' E 001°20'1414.3
2017-Feb-21 15:34N 51°00' E 001°40'7 7.4
2017-Feb-21 14:33N 50°58' E 001°51'9 9.2
2017-Feb-21 13:33N 50°60' E 001°37'1312.6
2017-Feb-21 12:32N 51°07' E 001°20'4 4.6
2017-Feb-21 11:33N 51°06' E 001°27'1616.4
2017-Feb-21 10:33N 50°58' E 001°50'0 0.1
2017-Feb-21 09:33N 50°58' E 001°50'1818.2
2017-Feb-21 08:33N 51°06' E 001°24'3 2.9
2017-Feb-21 07:33N 51°07' E 001°20'9 9.6
2017-Feb-21 06:34N 51°03' E 001°33'1212.2
2017-Feb-21 05:33N 50°58' E 001°51'2 1.7
2017-Feb-21 04:34N 50°58' E 001°48'1515.1
2017-Feb-21 03:33N 51°05' E 001°27'5 4.8
2017-Feb-21 02:33N 51°07' E 001°20'5 4.6
2017-Feb-21 01:33N 51°06' E 001°27'1514.8
2017-Feb-21 00:33N 50°58' E 001°47'2 2.4
2017-Feb-20 23:33N 50°58' E 001°51'1413.7
2017-Feb-20 22:33N 51°03' E 001°31'8 8.0
2017-Feb-20 21:33N 51°07' E 001°20'7 7.5
2017-Feb-20 20:34N 51°04' E 001°31'1414.1
2017-Feb-20 19:33N 50°58' E 001°51'3 2.5
2017-Feb-20 18:33N 50°58' E 001°47'1616.4
2017-Feb-20 17:34N 51°06' E 001°24'3 3.0
2017-Feb-20 16:33N 51°07' E 001°20'1615.6
2017-Feb-20 15:33N 50°60' E 001°41'6 6.2
2017-Feb-20 14:33N 50°58' E 001°51'10 9.7
2017-Feb-20 13:34N 51°01' E 001°36'1212.0
2017-Feb-20 12:33N 51°07' E 001°20'6 6.4
2017-Feb-20 11:33N 51°05' E 001°29'1515.1
2017-Feb-20 10:33N 50°58' E 001°51'1 1.4
2017-Feb-20 09:33N 50°58' E 001°49'1818.2
2017-Feb-20 08:33N 51°06' E 001°23'2 2.1
2017-Feb-20 07:33N 51°07' E 001°20'9 9.0
2017-Feb-20 06:33N 51°06' E 001°34'1313.1
2017-Feb-20 05:34N 50°58' E 001°51'1 1.3
2017-Feb-20 04:34N 50°58' E 001°49'1717.3
2017-Feb-20 03:34N 51°05' E 001°24'3 3.3
2017-Feb-20 02:33N 51°07' E 001°20'3 3.4
2017-Feb-20 01:34N 51°06' E 001°25'1818.0
2017-Feb-20 00:33N 50°58' E 001°51'0 0.3
2017-Feb-19 23:34N 50°58' E 001°51'0 0.0
2017-Feb-19 22:34N 50°58' E 001°51'0 0.0
2017-Feb-19 21:34N 50°58' E 001°51'0 0.0
2017-Feb-19 20:33N 50°58' E 001°51'1615.6
2017-Feb-19 19:34N 51°02' E 001°27'7 6.9
2017-Feb-19 18:33N 51°07' E 001°20'1211.8
2017-Feb-19 17:33N 51°03' E 001°37'10 9.8
2017-Feb-19 16:34N 50°58' E 001°51'8 7.9
2017-Feb-19 15:33N 50°59' E 001°39'1514.5
2017-Feb-19 14:34N 51°07' E 001°20'3 2.6
2017-Feb-19 13:33N 51°07' E 001°24'1716.9
2017-Feb-19 12:33N 50°58' E 001°47'2 2.4
2017-Feb-19 11:33N 50°58' E 001°51'1414.3
2017-Feb-19 10:33N 51°02' E 001°29'8 7.7
2017-Feb-19 09:33N 51°07' E 001°20'9 8.9
2017-Feb-19 08:33N 51°04' E 001°33'1312.8
2017-Feb-19 07:33N 50°58' E 001°51'0 0.0
2017-Feb-19 06:33N 50°58' E 001°51'0 0.0
2017-Feb-19 05:33N 50°58' E 001°51'0 0.0
2017-Feb-19 04:33N 50°58' E 001°51'0 0.0
2017-Feb-19 03:34N 50°58' E 001°51'0 0.0
2017-Feb-19 02:33N 50°58' E 001°51'0 0.0
2017-Feb-19 01:34N 50°58' E 001°51'0 0.0
2017-Feb-19 00:33N 50°58' E 001°51'0 0.0
2017-Feb-18 23:33N 50°58' E 001°51'0 0.0
2017-Feb-18 22:33N 50°58' E 001°51'0 0.0
2017-Feb-18 21:33N 50°58' E 001°51'9 8.6
2017-Feb-18 20:34N 50°60' E 001°38'1313.4
2017-Feb-18 19:33N 51°07' E 001°20'2 2.0
2017-Feb-18 18:33N 51°07' E 001°23'9 9.4
2017-Feb-18 17:33N 51°02' E 001°36'1010.5
2017-Feb-18 16:34N 50°58' E 001°51'7 6.8
2017-Feb-18 15:34N 50°59' E 001°40'1515.0
2017-Feb-18 14:33N 51°07' E 001°20'4 3.8
2017-Feb-18 13:34N 51°07' E 001°26'1817.7
2017-Feb-18 12:33N 50°58' E 001°51'0 0.4
2017-Feb-18 11:33N 50°58' E 001°50'1817.8
2017-Feb-18 10:33N 51°06' E 001°24'3 3.0
2017-Feb-18 09:33N 51°07' E 001°20'1514.7
2017-Feb-18 08:34N 51°00' E 001°41'7 6.8
2017-Feb-18 07:33N 50°58' E 001°51'1010.3
2017-Feb-18 06:33N 51°01' E 001°35'1111.4
2017-Feb-18 05:34N 51°07' E 001°20'0 0.0
2017-Feb-18 04:31N 51°07' E 001°20'6 6.2
2017-Feb-18 03:33N 51°06' E 001°29'1615.7
2017-Feb-18 02:33N 50°58' E 001°51'0 0.1
2017-Feb-18 01:33N 50°58' E 001°51'0 0.0
2017-Feb-18 00:33N 50°58' E 001°51'0 0.0
2017-Feb-17 23:33N 50°58' E 001°51'0 0.0
2017-Feb-17 22:33N 50°58' E 001°51'0 0.0
2017-Feb-17 21:33N 50°58' E 001°51'1 0.6
2017-Feb-17 20:34N 50°58' E 001°50'1818.4
2017-Feb-17 19:34N 51°06' E 001°24'3 2.6
2017-Feb-17 18:33N 51°07' E 001°20'1211.6
2017-Feb-17 17:33N 51°03' E 001°37'1010.1
2017-Feb-17 16:34N 50°58' E 001°51'5 5.3
2017-Feb-17 15:34N 50°58' E 001°43'1716.5
2017-Feb-17 14:33N 51°07' E 001°20'1 1.1
2017-Feb-17 13:34N 51°07' E 001°22'1918.7
2017-Feb-17 12:33N 50°58' E 001°48'2 1.9
2017-Feb-17 11:34N 50°58' E 001°51'1515.2
2017-Feb-17 10:34N 51°03' E 001°28'7 6.7
2017-Feb-17 09:33N 51°07' E 001°20'8 8.5
2017-Feb-17 08:34N 51°03' E 001°32'1313.1
2017-Feb-17 07:33N 50°58' E 001°51'5 5.0
2017-Feb-17 06:34N 50°58' E 001°43'1713.9
2017-Feb-17 05:19N 51°07' E 001°20'0 0.0
2017-Feb-17 04:33N 51°07' E 001°20'5 5.3
2017-Feb-17 03:34N 51°06' E 001°28'1615.9
2017-Feb-17 02:34N 50°58' E 001°51'0 0.4
2017-Feb-17 01:34N 50°58' E 001°51'0 0.0
2017-Feb-17 00:33N 50°58' E 001°51'0 0.0
2017-Feb-16 23:34N 50°58' E 001°51'0 0.0
2017-Feb-16 22:34N 50°58' E 001°51'0 0.0
2017-Feb-16 21:34N 50°58' E 001°51'0 0.4
2017-Feb-16 20:34N 50°58' E 001°51'1716.6
2017-Feb-16 19:33N 51°04' E 001°26'5 4.8
2017-Feb-16 18:33N 51°07' E 001°20'1211.7
2017-Feb-16 17:33N 51°01' E 001°36'10 9.9
2017-Feb-16 16:33N 50°58' E 001°51'6 5.7
2017-Feb-16 15:34N 50°58' E 001°42'1616.4
2017-Feb-16 14:33N 51°07' E 001°20'1 1.3
2017-Feb-16 13:33N 51°07' E 001°22'1818.0
2017-Feb-16 12:33N 50°58' E 001°47'3 2.6
2017-Feb-16 11:33N 50°58' E 001°51'1414.4
2017-Feb-16 10:33N 51°03' E 001°30'7 7.3
2017-Feb-16 09:33N 51°07' E 001°20'7 7.1
2017-Feb-16 08:33N 51°04' E 001°30'1514.5
2017-Feb-16 07:33N 50°58' E 001°51'1 1.3
2017-Feb-16 06:33N 50°58' E 001°49'1918.8
2017-Feb-16 05:33N 51°07' E 001°22'2 1.6
2017-Feb-16 04:33N 51°07' E 001°20'9 8.6
2017-Feb-16 03:33N 51°04' E 001°33'1313.0
2017-Feb-16 02:33N 50°58' E 001°51'0 0.0
2017-Feb-16 01:33N 50°58' E 001°51'0 0.0
2017-Feb-16 00:33N 50°58' E 001°51'0 0.0
2017-Feb-15 23:33N 50°58' E 001°51'0 0.0
2017-Feb-15 22:33N 50°58' E 001°51'0 0.0
2017-Feb-15 21:33N 50°58' E 001°51'0 0.0
2017-Feb-15 20:33N 50°58' E 001°51'1616.4
2017-Feb-15 19:33N 51°05' E 001°27'5 5.1
2017-Feb-15 18:33N 51°07' E 001°20'1313.0
2017-Feb-15 17:33N 51°01' E 001°38'9 8.8
2017-Feb-15 16:34N 50°58' E 001°51'1111.1
2017-Feb-15 15:34N 51°01' E 001°34'1110.8
2017-Feb-15 14:33N 51°07' E 001°20'6 5.6
2017-Feb-15 13:34N 51°07' E 001°29'1616.1
2017-Feb-15 12:33N 50°58' E 001°51'0 0.3
2017-Feb-15 11:33N 50°58' E 001°50'1716.8
2017-Feb-15 10:33N 51°05' E 001°26'4 4.3
2017-Feb-15 09:33N 51°07' E 001°20'7 6.9
2017-Feb-15 08:33N 51°06' E 001°31'1514.9
2017-Feb-15 07:33N 50°58' E 001°51'3 2.5
2017-Feb-15 06:33N 50°58' E 001°47'1918.8
2017-Feb-15 05:33N 51°07' E 001°21'0 0.5
2017-Feb-15 04:33N 51°07' E 001°20'8 8.1
2017-Feb-15 03:34N 51°06' E 001°33'1413.8
2017-Feb-15 02:33N 50°58' E 001°51'0 0.1
2017-Feb-15 01:33N 50°58' E 001°51'0 0.0
2017-Feb-15 00:34N 50°58' E 001°51'0 0.0
2017-Feb-14 23:34N 50°58' E 001°51'0 0.0
2017-Feb-14 22:33N 50°58' E 001°51'6 5.9
2017-Feb-14 21:34N 50°58' E 001°42'1616.0
2017-Feb-14 20:33N 51°07' E 001°21'0 0.3
2017-Feb-14 19:21N 51°07' E 001°20'911.8
2017-Feb-14 18:33N 51°04' E 001°34'1212.3
2017-Feb-14 17:33N 50°58' E 001°51'8 8.3
2017-Feb-14 16:33N 51°00' E 001°38'1313.4
2017-Feb-14 15:33N 51°07' E 001°20'1 1.4
2017-Feb-14 14:33N 51°07' E 001°22'1615.7
2017-Feb-14 13:33N 50°59' E 001°44'5 4.7
2017-Feb-14 12:33N 50°58' E 001°51'1211.8
2017-Feb-14 11:34N 50°59' E 001°32'1111.1
2017-Feb-14 10:33N 51°07' E 001°20'5 5.0
2017-Feb-14 09:34N 51°06' E 001°28'1616.3
2017-Feb-14 08:34N 50°58' E 001°51'0 0.1
2017-Feb-14 07:33N 50°58' E 001°51'1515.5
2017-Feb-14 06:33N 51°04' E 001°28'6 6.2
2017-Feb-14 05:33N 51°07' E 001°20'0 0.0
2017-Feb-14 04:33N 51°07' E 001°20'7 6.7
2017-Feb-14 03:34N 51°04' E 001°29'1514.9
2017-Feb-14 02:33N 50°58' E 001°51'0 0.1
2017-Feb-14 01:33N 50°58' E 001°51'0 0.0
2017-Feb-14 00:33N 50°58' E 001°51'0 0.0
2017-Feb-13 23:33N 50°58' E 001°51'0 0.0
2017-Feb-13 22:33N 50°58' E 001°51'0 0.0
2017-Feb-13 21:33N 50°58' E 001°51'6 6.1
2017-Feb-13 20:33N 50°58' E 001°41'1616.2
2017-Feb-13 19:33N 51°07' E 001°20'0 0.1
2017-Feb-13 18:33N 51°07' E 001°20'1616.4
2017-Feb-13 17:33N 50°59' E 001°43'6 5.5
2017-Feb-13 16:33N 50°58' E 001°51'1514.8
2017-Feb-13 15:33N 51°03' E 001°29'7 7.2
2017-Feb-13 14:33N 51°07' E 001°20'5 4.7
2017-Feb-13 13:34N 51°06' E 001°27'1716.4
2017-Feb-13 12:33N 50°58' E 001°51'1 0.8
2017-Feb-13 11:33N 50°58' E 001°49'1817.8
2017-Feb-13 10:33N 51°05' E 001°23'3 2.9
2017-Feb-13 09:32N 51°07' E 001°20'7 6.7
2017-Feb-13 08:34N 51°05' E 001°29'1515.4
2017-Feb-13 07:33N 50°58' E 001°52'0 0.0
2017-Feb-13 06:33N 50°58' E 001°52'0 0.3
2017-Feb-13 05:33N 50°58' E 001°52'0 0.0
2017-Feb-13 04:33N 50°58' E 001°52'0 0.0
2017-Feb-13 03:33N 50°58' E 001°52'0 0.0
2017-Feb-13 02:33N 50°58' E 001°52'  
Track history (hours):
 
Tides and Currents Weather Stations Pressure Air Temp Water Temp Dewpoint Dewpoint Depression Visibility Wind Speed Wind Dir Waves Ship Positions

Pride Of Burgundy

Operator: P & O Ferries

Last reported at 2017-Feb-23 02:33 UTC. Time now 2017-Feb-23 02:33 UTC.
Position N 51°06' E 001°25'.

Length 180 m; draft 6.2 m.

Type: Passenger vessel. MMSI: 232001470.

Date/timePositionNaut miles runAvg speedWind from/ knotsBaromVisibWave heightAir tempDewpointWater temp
2017-Feb-23 02:33N 51°06' E 001°25'1414.1
2017-Feb-23 01:33N 50°58' E 001°44'5 5.0
2017-Feb-23 00:33N 50°58' E 001°52'9 8.7
2017-Feb-22 23:33N 50°59' E 001°38'1413.2
2017-Feb-22 22:30N 51°07' E 001°20'0 0.1
2017-Feb-22 21:33N 51°07' E 001°20'1212.1
2017-Feb-22 20:33N 51°03' E 001°38'9 9.5
2017-Feb-22 19:33N 50°58' E 001°51'4 4.4
2017-Feb-22 18:33N 50°58' E 001°44'1817.8
2017-Feb-22 17:33N 51°07' E 001°20'1 0.6
2017-Feb-22 16:33N 51°07' E 001°21'1817.9
2017-Feb-22 15:33N 50°58' E 001°46'3 3.5
2017-Feb-22 14:33N 50°58' E 001°51'1010.3
2017-Feb-22 13:33N 51°01' E 001°35'1111.5
2017-Feb-22 12:33N 51°07' E 001°20'6 5.9
2017-Feb-22 11:33N 51°05' E 001°29'1615.7
2017-Feb-22 10:33N 50°58' E 001°51'1 0.6
2017-Feb-22 09:33N 50°58' E 001°50'1817.7
2017-Feb-22 08:33N 51°04' E 001°24'4 3.7
2017-Feb-22 07:33N 51°07' E 001°20'1110.6
2017-Feb-22 06:34N 51°03' E 001°36'1111.0
2017-Feb-22 05:33N 50°58' E 001°51'2 2.2
2017-Feb-22 04:33N 50°58' E 001°48'1818.4
2017-Feb-22 03:33N 51°07' E 001°22'1 1.2
2017-Feb-22 02:33N 51°07' E 001°20'4 4.2
2017-Feb-22 01:33N 51°07' E 001°27'1616.4
2017-Feb-22 00:33N 50°58' E 001°49'2 1.7
2017-Feb-21 23:34N 50°58' E 001°51'1514.5
2017-Feb-21 22:33N 51°03' E 001°29'8 7.6
2017-Feb-21 21:34N 51°07' E 001°20'7 6.9
2017-Feb-21 20:34N 51°05' E 001°30'1414.5
2017-Feb-21 19:33N 50°58' E 001°51'0 0.2
2017-Feb-21 18:34N 50°58' E 001°50'1817.6
2017-Feb-21 17:34N 51°06' E 001°25'4 3.5
2017-Feb-21 16:33N 51°07' E 001°20'1414.3
2017-Feb-21 15:34N 51°00' E 001°40'7 7.4
2017-Feb-21 14:33N 50°58' E 001°51'9 9.2
2017-Feb-21 13:33N 50°60' E 001°37'1312.6
2017-Feb-21 12:32N 51°07' E 001°20'4 4.6
2017-Feb-21 11:33N 51°06' E 001°27'1616.4
2017-Feb-21 10:33N 50°58' E 001°50'0 0.1
2017-Feb-21 09:33N 50°58' E 001°50'1818.2
2017-Feb-21 08:33N 51°06' E 001°24'3 2.9
2017-Feb-21 07:33N 51°07' E 001°20'9 9.6
2017-Feb-21 06:34N 51°03' E 001°33'1212.2
2017-Feb-21 05:33N 50°58' E 001°51'2 1.7
2017-Feb-21 04:34N 50°58' E 001°48'1515.1
2017-Feb-21 03:33N 51°05' E 001°27'5 4.8
2017-Feb-21 02:33N 51°07' E 001°20'5 4.6
2017-Feb-21 01:33N 51°06' E 001°27'1514.8
2017-Feb-21 00:33N 50°58' E 001°47'2 2.4
2017-Feb-20 23:33N 50°58' E 001°51'1413.7
2017-Feb-20 22:33N 51°03' E 001°31'8 8.0
2017-Feb-20 21:33N 51°07' E 001°20'7 7.5
2017-Feb-20 20:34N 51°04' E 001°31'1414.1
2017-Feb-20 19:33N 50°58' E 001°51'3 2.5
2017-Feb-20 18:33N 50°58' E 001°47'1616.4
2017-Feb-20 17:34N 51°06' E 001°24'3 3.0
2017-Feb-20 16:33N 51°07' E 001°20'1615.6
2017-Feb-20 15:33N 50°60' E 001°41'6 6.2
2017-Feb-20 14:33N 50°58' E 001°51'10 9.7
2017-Feb-20 13:34N 51°01' E 001°36'1212.0
2017-Feb-20 12:33N 51°07' E 001°20'6 6.4
2017-Feb-20 11:33N 51°05' E 001°29'1515.1
2017-Feb-20 10:33N 50°58' E 001°51'1 1.4
2017-Feb-20 09:33N 50°58' E 001°49'1818.2
2017-Feb-20 08:33N 51°06' E 001°23'2 2.1
2017-Feb-20 07:33N 51°07' E 001°20'9 9.0
2017-Feb-20 06:33N 51°06' E 001°34'1313.1
2017-Feb-20 05:34N 50°58' E 001°51'1 1.3
2017-Feb-20 04:34N 50°58' E 001°49'1717.3
2017-Feb-20 03:34N 51°05' E 001°24'3 3.3
2017-Feb-20 02:33N 51°07' E 001°20'3 3.4
2017-Feb-20 01:34N 51°06' E 001°25'1818.0
2017-Feb-20 00:33N 50°58' E 001°51'0 0.3
2017-Feb-19 23:34N 50°58' E 001°51'0 0.0
2017-Feb-19 22:34N 50°58' E 001°51'0 0.0
2017-Feb-19 21:34N 50°58' E 001°51'0 0.0
2017-Feb-19 20:33N 50°58' E 001°51'1615.6
2017-Feb-19 19:34N 51°02' E 001°27'7 6.9
2017-Feb-19 18:33N 51°07' E 001°20'1211.8
2017-Feb-19 17:33N 51°03' E 001°37'10 9.8
2017-Feb-19 16:34N 50°58' E 001°51'8 7.9
2017-Feb-19 15:33N 50°59' E 001°39'1514.5
2017-Feb-19 14:34N 51°07' E 001°20'3 2.6
2017-Feb-19 13:33N 51°07' E 001°24'1716.9
2017-Feb-19 12:33N 50°58' E 001°47'2 2.4
2017-Feb-19 11:33N 50°58' E 001°51'1414.3
2017-Feb-19 10:33N 51°02' E 001°29'8 7.7
2017-Feb-19 09:33N 51°07' E 001°20'9 8.9
2017-Feb-19 08:33N 51°04' E 001°33'1312.8
2017-Feb-19 07:33N 50°58' E 001°51'0 0.0
2017-Feb-19 06:33N 50°58' E 001°51'0 0.0
2017-Feb-19 05:33N 50°58' E 001°51'0 0.0
2017-Feb-19 04:33N 50°58' E 001°51'0 0.0
2017-Feb-19 03:34N 50°58' E 001°51'0 0.0
2017-Feb-19 02:33N 50°58' E 001°51'0 0.0
2017-Feb-19 01:34N 50°58' E 001°51'0 0.0
2017-Feb-19 00:33N 50°58' E 001°51'0 0.0
2017-Feb-18 23:33N 50°58' E 001°51'0 0.0
2017-Feb-18 22:33N 50°58' E 001°51'0 0.0
2017-Feb-18 21:33N 50°58' E 001°51'9 8.6
2017-Feb-18 20:34N 50°60' E 001°38'1313.4
2017-Feb-18 19:33N 51°07' E 001°20'2 2.0
2017-Feb-18 18:33N 51°07' E 001°23'9 9.4
2017-Feb-18 17:33N 51°02' E 001°36'1010.5
2017-Feb-18 16:34N 50°58' E 001°51'7 6.8
2017-Feb-18 15:34N 50°59' E 001°40'1515.0
2017-Feb-18 14:33N 51°07' E 001°20'4 3.8
2017-Feb-18 13:34N 51°07' E 001°26'1817.7
2017-Feb-18 12:33N 50°58' E 001°51'0 0.4
2017-Feb-18 11:33N 50°58' E 001°50'1817.8
2017-Feb-18 10:33N 51°06' E 001°24'3 3.0
2017-Feb-18 09:33N 51°07' E 001°20'1514.7
2017-Feb-18 08:34N 51°00' E 001°41'7 6.8
2017-Feb-18 07:33N 50°58' E 001°51'1010.3
2017-Feb-18 06:33N 51°01' E 001°35'1111.4
2017-Feb-18 05:34N 51°07' E 001°20'0 0.0
2017-Feb-18 04:31N 51°07' E 001°20'6 6.2
2017-Feb-18 03:33N 51°06' E 001°29'1615.7
2017-Feb-18 02:33N 50°58' E 001°51'0 0.1
2017-Feb-18 01:33N 50°58' E 001°51'0 0.0
2017-Feb-18 00:33N 50°58' E 001°51'0 0.0
2017-Feb-17 23:33N 50°58' E 001°51'0 0.0
2017-Feb-17 22:33N 50°58' E 001°51'0 0.0
2017-Feb-17 21:33N 50°58' E 001°51'1 0.6
2017-Feb-17 20:34N 50°58' E 001°50'1818.4
2017-Feb-17 19:34N 51°06' E 001°24'3 2.6
2017-Feb-17 18:33N 51°07' E 001°20'1211.6
2017-Feb-17 17:33N 51°03' E 001°37'1010.1
2017-Feb-17 16:34N 50°58' E 001°51'5 5.3
2017-Feb-17 15:34N 50°58' E 001°43'1716.5
2017-Feb-17 14:33N 51°07' E 001°20'1 1.1
2017-Feb-17 13:34N 51°07' E 001°22'1918.7
2017-Feb-17 12:33N 50°58' E 001°48'2 1.9
2017-Feb-17 11:34N 50°58' E 001°51'1515.2
2017-Feb-17 10:34N 51°03' E 001°28'7 6.7
2017-Feb-17 09:33N 51°07' E 001°20'8 8.5
2017-Feb-17 08:34N 51°03' E 001°32'1313.1
2017-Feb-17 07:33N 50°58' E 001°51'5 5.0
2017-Feb-17 06:34N 50°58' E 001°43'1713.9
2017-Feb-17 05:19N 51°07' E 001°20'0 0.0
2017-Feb-17 04:33N 51°07' E 001°20'5 5.3
2017-Feb-17 03:34N 51°06' E 001°28'1615.9
2017-Feb-17 02:34N 50°58' E 001°51'0 0.4
2017-Feb-17 01:34N 50°58' E 001°51'0 0.0
2017-Feb-17 00:33N 50°58' E 001°51'0 0.0
2017-Feb-16 23:34N 50°58' E 001°51'0 0.0
2017-Feb-16 22:34N 50°58' E 001°51'0 0.0
2017-Feb-16 21:34N 50°58' E 001°51'0 0.4
2017-Feb-16 20:34N 50°58' E 001°51'1716.6
2017-Feb-16 19:33N 51°04' E 001°26'5 4.8
2017-Feb-16 18:33N 51°07' E 001°20'1211.7
2017-Feb-16 17:33N 51°01' E 001°36'10 9.9
2017-Feb-16 16:33N 50°58' E 001°51'6 5.7
2017-Feb-16 15:34N 50°58' E 001°42'1616.4
2017-Feb-16 14:33N 51°07' E 001°20'1 1.3
2017-Feb-16 13:33N 51°07' E 001°22'1818.0
2017-Feb-16 12:33N 50°58' E 001°47'3 2.6
2017-Feb-16 11:33N 50°58' E 001°51'1414.4
2017-Feb-16 10:33N 51°03' E 001°30'7 7.3
2017-Feb-16 09:33N 51°07' E 001°20'7 7.1
2017-Feb-16 08:33N 51°04' E 001°30'1514.5
2017-Feb-16 07:33N 50°58' E 001°51'1 1.3
2017-Feb-16 06:33N 50°58' E 001°49'1918.8
2017-Feb-16 05:33N 51°07' E 001°22'2 1.6
2017-Feb-16 04:33N 51°07' E 001°20'9 8.6
2017-Feb-16 03:33N 51°04' E 001°33'1313.0
2017-Feb-16 02:33N 50°58' E 001°51'0 0.0
2017-Feb-16 01:33N 50°58' E 001°51'0 0.0
2017-Feb-16 00:33N 50°58' E 001°51'0 0.0
2017-Feb-15 23:33N 50°58' E 001°51'0 0.0
2017-Feb-15 22:33N 50°58' E 001°51'0 0.0
2017-Feb-15 21:33N 50°58' E 001°51'0 0.0
2017-Feb-15 20:33N 50°58' E 001°51'1616.4
2017-Feb-15 19:33N 51°05' E 001°27'5 5.1
2017-Feb-15 18:33N 51°07' E 001°20'1313.0
2017-Feb-15 17:33N 51°01' E 001°38'9 8.8
2017-Feb-15 16:34N 50°58' E 001°51'1111.1
2017-Feb-15 15:34N 51°01' E 001°34'1110.8
2017-Feb-15 14:33N 51°07' E 001°20'6 5.6
2017-Feb-15 13:34N 51°07' E 001°29'1616.1
2017-Feb-15 12:33N 50°58' E 001°51'0 0.3
2017-Feb-15 11:33N 50°58' E 001°50'1716.8
2017-Feb-15 10:33N 51°05' E 001°26'4 4.3
2017-Feb-15 09:33N 51°07' E 001°20'7 6.9
2017-Feb-15 08:33N 51°06' E 001°31'1514.9
2017-Feb-15 07:33N 50°58' E 001°51'3 2.5
2017-Feb-15 06:33N 50°58' E 001°47'1918.8
2017-Feb-15 05:33N 51°07' E 001°21'0 0.5
2017-Feb-15 04:33N 51°07' E 001°20'8 8.1
2017-Feb-15 03:34N 51°06' E 001°33'1413.8
2017-Feb-15 02:33N 50°58' E 001°51'0 0.1
2017-Feb-15 01:33N 50°58' E 001°51'0 0.0
2017-Feb-15 00:34N 50°58' E 001°51'0 0.0
2017-Feb-14 23:34N 50°58' E 001°51'0 0.0
2017-Feb-14 22:33N 50°58' E 001°51'6 5.9
2017-Feb-14 21:34N 50°58' E 001°42'1616.0
2017-Feb-14 20:33N 51°07' E 001°21'0 0.3
2017-Feb-14 19:21N 51°07' E 001°20'911.8
2017-Feb-14 18:33N 51°04' E 001°34'1212.3
2017-Feb-14 17:33N 50°58' E 001°51'8 8.3
2017-Feb-14 16:33N 51°00' E 001°38'1313.4
2017-Feb-14 15:33N 51°07' E 001°20'1 1.4
2017-Feb-14 14:33N 51°07' E 001°22'1615.7
2017-Feb-14 13:33N 50°59' E 001°44'5 4.7
2017-Feb-14 12:33N 50°58' E 001°51'1211.8
2017-Feb-14 11:34N 50°59' E 001°32'1111.1
2017-Feb-14 10:33N 51°07' E 001°20'5 5.0
2017-Feb-14 09:34N 51°06' E 001°28'1616.3
2017-Feb-14 08:34N 50°58' E 001°51'0 0.1
2017-Feb-14 07:33N 50°58' E 001°51'1515.5
2017-Feb-14 06:33N 51°04' E 001°28'6 6.2
2017-Feb-14 05:33N 51°07' E 001°20'0 0.0
2017-Feb-14 04:33N 51°07' E 001°20'7 6.7
2017-Feb-14 03:34N 51°04' E 001°29'1514.9
2017-Feb-14 02:33N 50°58' E 001°51'0 0.1
2017-Feb-14 01:33N 50°58' E 001°51'0 0.0
2017-Feb-14 00:33N 50°58' E 001°51'0 0.0
2017-Feb-13 23:33N 50°58' E 001°51'0 0.0
2017-Feb-13 22:33N 50°58' E 001°51'0 0.0
2017-Feb-13 21:33N 50°58' E 001°51'6 6.1
2017-Feb-13 20:33N 50°58' E 001°41'1616.2
2017-Feb-13 19:33N 51°07' E 001°20'0 0.1
2017-Feb-13 18:33N 51°07' E 001°20'1616.4
2017-Feb-13 17:33N 50°59' E 001°43'6 5.5
2017-Feb-13 16:33N 50°58' E 001°51'1514.8
2017-Feb-13 15:33N 51°03' E 001°29'7 7.2
2017-Feb-13 14:33N 51°07' E 001°20'5 4.7
2017-Feb-13 13:34N 51°06' E 001°27'1716.4
2017-Feb-13 12:33N 50°58' E 001°51'1 0.8
2017-Feb-13 11:33N 50°58' E 001°49'1817.8
2017-Feb-13 10:33N 51°05' E 001°23'3 2.9
2017-Feb-13 09:32N 51°07' E 001°20'7 6.7
2017-Feb-13 08:34N 51°05' E 001°29'1515.4
2017-Feb-13 07:33N 50°58' E 001°52'0 0.0
2017-Feb-13 06:33N 50°58' E 001°52'0 0.3
2017-Feb-13 05:33N 50°58' E 001°52'0 0.0
2017-Feb-13 04:33N 50°58' E 001°52'0 0.0
2017-Feb-13 03:33N 50°58' E 001°52'0 0.0
2017-Feb-13 02:33N 50°58' E 001°52'  

Dump ship's entire track history